createdAt,value
2019-02-06T00:01:33.867Z,3.20
2019-02-06T00:04:15.548Z,3.10
2019-02-06T00:06:56.936Z,3.10
2019-02-06T00:09:38.341Z,3.10
2019-02-06T00:12:19.797Z,3.10
2019-02-06T00:15:01.280Z,3.10
2019-02-06T00:17:40.705Z,3.00
2019-02-06T00:20:29.208Z,2.90
2019-02-06T00:23:17.428Z,2.90
2019-02-06T00:26:05.641Z,2.90
2019-02-06T00:28:48.557Z,2.90
2019-02-06T00:31:18.319Z,2.70
2019-02-06T00:34:06.519Z,2.70
2019-02-06T00:36:55.022Z,2.50
2019-02-06T00:39:43.519Z,2.60
2019-02-06T00:42:31.791Z,2.60
2019-02-06T00:45:20.356Z,2.50
2019-02-06T00:48:08.566Z,2.40
2019-02-06T00:50:56.794Z,2.40
2019-02-06T00:53:45.076Z,2.50
2019-02-06T00:56:33.391Z,2.40
2019-02-06T00:59:21.855Z,2.40
2019-02-06T01:02:11.878Z,2.40
2019-02-06T01:05:00.204Z,2.40
2019-02-06T01:07:48.473Z,2.40
2019-02-06T01:10:36.987Z,2.30
2019-02-06T01:13:25.315Z,2.30
2019-02-06T01:16:13.551Z,2.20
2019-02-06T01:18:55.151Z,2.20
2019-02-06T01:21:36.932Z,2.20
2019-02-06T01:24:06.067Z,2.20
2019-02-06T01:26:54.555Z,2.00
2019-02-06T01:29:35.943Z,2.20
2019-02-06T01:35:16.051Z,2.20
2019-02-06T01:37:56.559Z,2.20
2019-02-06T01:40:37.535Z,2.20
2019-02-06T01:43:18.895Z,2.10
2019-02-06T01:45:59.884Z,2.00
2019-02-06T01:48:40.251Z,2.10
2019-02-06T01:51:21.340Z,2.10
2019-02-06T01:53:50.831Z,2.10
2019-02-06T01:56:39.147Z,2.00
2019-02-06T01:59:27.354Z,1.90
2019-02-06T02:02:15.678Z,1.90
2019-02-06T02:05:04.028Z,2.00
2019-02-06T02:07:54.052Z,2.00
2019-02-06T02:10:42.371Z,1.90
2019-02-06T02:13:30.596Z,1.90
2019-02-06T02:16:19.095Z,1.80
2019-02-06T02:19:07.324Z,1.80
2019-02-06T02:21:56.175Z,1.80
2019-02-06T02:24:44.707Z,1.80
2019-02-06T02:27:33.318Z,1.60
2019-02-06T02:33:42.545Z,1.80
2019-02-06T02:36:24.101Z,1.70
2019-02-06T02:39:05.184Z,1.70
2019-02-06T02:41:45.760Z,1.70
2019-02-06T02:44:26.761Z,1.70
2019-02-06T02:47:07.549Z,1.80
2019-02-06T02:49:48.379Z,1.80
2019-02-06T02:52:29.279Z,1.80
2019-02-06T02:55:10.292Z,1.70
2019-02-06T02:57:51.293Z,1.70
2019-02-06T03:03:51.186Z,1.60
2019-02-06T03:06:32.725Z,1.50
2019-02-06T03:09:14.188Z,1.50
2019-02-06T03:11:54.947Z,1.50
2019-02-06T03:14:35.841Z,1.50
2019-02-06T03:17:16.719Z,1.50
2019-02-06T03:19:58.032Z,1.50
2019-02-06T03:22:39.117Z,1.50
2019-02-06T03:25:19.840Z,1.40
2019-02-06T03:28:00.861Z,1.40
2019-02-06T03:30:41.763Z,1.40
2019-02-06T03:33:22.361Z,1.40
2019-02-06T03:36:03.175Z,1.40
2019-02-06T03:38:43.903Z,1.30
2019-02-06T03:41:23.371Z,1.30
2019-02-06T03:44:11.824Z,1.30
2019-02-06T03:47:00.048Z,1.20
2019-02-06T03:49:48.356Z,1.20
2019-02-06T03:52:36.572Z,1.20
2019-02-06T03:55:24.801Z,1.20
2019-02-06T03:58:13.304Z,1.20
2019-02-06T04:01:01.527Z,1.20
2019-02-06T04:03:49.807Z,1.20
2019-02-06T04:06:38.056Z,1.30
2019-02-06T04:09:26.268Z,1.30
2019-02-06T04:12:14.806Z,1.30
2019-02-06T04:15:03.110Z,1.30
2019-02-06T04:17:45.377Z,1.20
2019-02-06T04:20:26.232Z,1.20
2019-02-06T04:23:07.496Z,1.30
2019-02-06T04:25:49.212Z,1.40
2019-02-06T04:28:30.448Z,1.50
2019-02-06T04:31:11.435Z,1.40
2019-02-06T04:33:40.997Z,1.30
2019-02-06T04:36:29.364Z,1.20
2019-02-06T04:39:17.912Z,1.30
2019-02-06T04:42:06.215Z,1.20
2019-02-06T04:44:54.440Z,1.10
2019-02-06T04:47:44.484Z,1.00
2019-02-06T04:50:13.714Z,1.20
2019-02-06T04:53:02.039Z,1.20
2019-02-06T04:55:51.957Z,1.30
2019-02-06T04:58:40.423Z,1.40
2019-02-06T05:01:28.652Z,1.30
2019-02-06T05:04:16.895Z,1.20
2019-02-06T05:07:05.139Z,1.20
2019-02-06T05:09:53.351Z,1.10
2019-02-06T05:12:41.763Z,1.10
2019-02-06T05:15:29.966Z,1.10
2019-02-06T05:17:59.352Z,1.10
2019-02-06T05:20:39.583Z,1.30
2019-02-06T05:23:09.635Z,1.20
2019-02-06T05:25:57.860Z,1.20
2019-02-06T05:28:26.963Z,1.10
2019-02-06T05:31:15.268Z,1.00
2019-02-06T05:34:03.483Z,0.90
2019-02-06T05:36:51.734Z,0.80
2019-02-06T05:39:40.308Z,0.80
2019-02-06T05:42:28.931Z,0.80
2019-02-06T05:45:17.153Z,0.80
2019-02-06T05:48:05.386Z,0.80
2019-02-06T05:50:53.677Z,0.70
2019-02-06T05:53:41.982Z,0.60
2019-02-06T05:56:30.215Z,0.60
2019-02-06T05:59:18.429Z,0.60
2019-02-06T06:02:06.817Z,0.70
2019-02-06T06:04:55.110Z,0.80
2019-02-06T06:07:45.525Z,0.80
2019-02-06T06:10:33.297Z,0.70
2019-02-06T06:13:21.612Z,0.80
2019-02-06T06:16:10.208Z,0.70
2019-02-06T06:18:51.740Z,0.70
2019-02-06T06:21:32.658Z,0.70
2019-02-06T06:24:13.189Z,0.70
2019-02-06T06:26:54.579Z,0.60
2019-02-06T06:29:35.788Z,0.50
2019-02-06T06:32:04.939Z,0.50
2019-02-06T06:34:53.143Z,0.50
2019-02-06T06:37:41.772Z,0.50
2019-02-06T06:40:31.335Z,0.50
2019-02-06T06:43:19.941Z,0.50
2019-02-06T06:46:08.417Z,0.60
2019-02-06T06:48:56.716Z,0.70
2019-02-06T06:51:37.159Z,0.60
2019-02-06T06:54:18.415Z,0.60
2019-02-06T06:56:58.996Z,0.60
2019-02-06T06:59:40.202Z,0.60
2019-02-06T07:02:21.504Z,0.70
2019-02-06T07:04:50.640Z,0.80
2019-02-06T07:07:39.148Z,0.90
2019-02-06T07:10:27.362Z,0.90
2019-02-06T07:13:15.596Z,1.00
2019-02-06T07:16:03.880Z,1.00
2019-02-06T07:18:52.108Z,1.00
2019-02-06T07:21:21.222Z,1.00
2019-02-06T07:24:09.512Z,1.00
2019-02-06T07:26:57.716Z,1.00
2019-02-06T07:29:46.019Z,1.00
2019-02-06T07:32:36.443Z,1.00
2019-02-06T07:35:25.897Z,1.00
2019-02-06T07:38:23.927Z,1.10
2019-02-06T07:41:04.134Z,1.10
2019-02-06T07:43:52.437Z,1.10
2019-02-06T07:46:40.711Z,1.30
2019-02-06T07:49:28.942Z,1.30
2019-02-06T07:52:09.885Z,1.30
2019-02-06T07:54:50.728Z,1.30
2019-02-06T07:57:31.652Z,1.50
2019-02-06T08:00:12.604Z,1.60
2019-02-06T08:02:53.493Z,1.70
2019-02-06T08:05:33.987Z,1.70
2019-02-06T08:08:14.969Z,1.70
2019-02-06T08:10:56.083Z,1.80
2019-02-06T08:13:37.099Z,1.80
2019-02-06T08:16:07.434Z,1.90
2019-02-06T08:18:56.336Z,1.90
2019-02-06T08:21:44.615Z,2.00
2019-02-06T08:24:32.856Z,1.90
2019-02-06T08:27:21.065Z,1.70
2019-02-06T08:30:12.323Z,1.90
2019-02-06T08:33:00.568Z,2.00
2019-02-06T08:35:49.139Z,2.10
2019-02-06T08:38:47.460Z,2.20
2019-02-06T08:41:08.429Z,2.30
2019-02-06T08:43:57.260Z,2.30
2019-02-06T08:46:45.721Z,2.20
2019-02-06T08:49:34.539Z,2.00
2019-02-06T08:52:15.342Z,1.90
2019-02-06T08:54:55.826Z,2.10
2019-02-06T08:57:36.943Z,2.20
2019-02-06T09:00:18.366Z,2.30
2019-02-06T09:02:59.580Z,2.40
2019-02-06T09:05:41.221Z,2.50
2019-02-06T09:08:22.320Z,2.80
2019-02-06T09:11:02.953Z,3.20
2019-02-06T09:13:44.076Z,3.30
2019-02-06T09:16:25.364Z,3.70
2019-02-06T09:19:05.833Z,4.30
2019-02-06T09:21:46.733Z,4.90
2019-02-06T09:24:27.363Z,5.40
2019-02-06T09:27:07.962Z,5.70
2019-02-06T09:29:49.671Z,6.10
2019-02-06T09:32:30.500Z,6.30
2019-02-06T09:35:11.637Z,6.70
2019-02-06T09:37:53.136Z,7.00
2019-02-06T09:40:34.012Z,7.10
2019-02-06T09:43:14.825Z,7.20
2019-02-06T09:45:57.095Z,7.20
2019-02-06T09:48:38.324Z,7.40
2019-02-06T09:51:19.464Z,7.50
2019-02-06T09:54:01.155Z,7.10
2019-02-06T09:56:41.979Z,6.80
2019-02-06T09:59:22.664Z,6.90
2019-02-06T10:02:03.352Z,7.00
2019-02-06T10:04:32.773Z,6.70
2019-02-06T10:07:21.050Z,5.90
2019-02-06T10:10:11.671Z,6.10
2019-02-06T10:13:00.131Z,6.10
2019-02-06T10:15:48.379Z,6.30
2019-02-06T10:18:36.575Z,6.80
2019-02-06T10:21:24.894Z,7.10
2019-02-06T10:24:13.148Z,7.70
2019-02-06T10:27:01.359Z,7.90
2019-02-06T10:29:51.384Z,7.80
2019-02-06T10:32:39.624Z,7.60
2019-02-06T10:35:27.849Z,8.20
2019-02-06T10:38:16.128Z,8.90
2019-02-06T10:40:45.341Z,9.00
2019-02-06T10:43:35.815Z,9.30
2019-02-06T10:46:23.496Z,9.40
2019-02-06T10:49:11.943Z,9.90
2019-02-06T10:52:00.597Z,9.70
2019-02-06T10:54:48.914Z,10.00
2019-02-06T10:57:37.196Z,10.20
2019-02-06T11:00:30.023Z,9.70
2019-02-06T11:03:19.755Z,10.10
2019-02-06T11:06:08.004Z,10.70
2019-02-06T11:08:56.291Z,11.10
2019-02-06T11:11:44.531Z,10.70
2019-02-06T11:14:33.080Z,10.00
2019-02-06T11:17:13.851Z,9.70
2019-02-06T11:19:55.080Z,9.90
2019-02-06T11:22:36.440Z,9.90
2019-02-06T11:28:16.880Z,9.60
2019-02-06T11:30:58.122Z,10.20
2019-02-06T11:33:39.715Z,10.90
2019-02-06T11:36:24.147Z,10.50
2019-02-06T11:39:05.679Z,10.40
2019-02-06T11:41:46.324Z,10.20
2019-02-06T11:44:27.391Z,9.60
2019-02-06T11:46:56.677Z,9.90
2019-02-06T11:49:31.899Z,10.10
2019-02-06T11:52:01.032Z,10.20
2019-02-06T11:54:49.942Z,10.50
2019-02-06T11:57:38.216Z,10.40
2019-02-06T12:00:48.319Z,10.40
2019-02-06T12:03:35.550Z,10.40
2019-02-06T12:06:23.800Z,10.30
2019-02-06T12:08:53.295Z,10.30
2019-02-06T12:11:41.696Z,9.50
2019-02-06T12:14:29.923Z,9.70
2019-02-06T12:17:10.767Z,9.60
2019-02-06T12:19:52.300Z,9.80
2019-02-06T12:22:33.907Z,9.80
2019-02-06T12:25:14.992Z,10.00
2019-02-06T12:27:55.828Z,10.20
2019-02-06T12:30:37.356Z,10.20
2019-02-06T12:33:18.077Z,10.40
2019-02-06T12:35:58.903Z,10.20
2019-02-06T12:38:39.924Z,10.30
2019-02-06T12:41:20.737Z,10.30
2019-02-06T12:44:01.463Z,10.30
2019-02-06T12:46:42.951Z,10.30
2019-02-06T12:49:24.166Z,9.90
2019-02-06T12:52:05.112Z,9.60
2019-02-06T12:54:45.860Z,9.60
2019-02-06T12:57:36.454Z,9.80
2019-02-06T13:00:10.479Z,9.90
2019-02-06T13:03:00.147Z,10.00
2019-02-06T13:05:48.709Z,9.90
2019-02-06T13:08:36.916Z,10.10
2019-02-06T13:11:25.415Z,10.30
2019-02-06T13:13:54.536Z,10.40
2019-02-06T13:16:23.683Z,10.40
2019-02-06T13:19:11.967Z,10.30
2019-02-06T13:22:00.200Z,9.90
2019-02-06T13:24:48.912Z,9.30
2019-02-06T13:27:37.167Z,9.20
2019-02-06T13:30:44.785Z,9.10
2019-02-06T13:33:33.062Z,9.40
2019-02-06T13:36:13.815Z,9.40
2019-02-06T13:38:54.991Z,9.50
2019-02-06T13:41:36.378Z,9.70
2019-02-06T13:44:05.716Z,9.90
2019-02-06T13:46:34.923Z,10.00
2019-02-06T13:49:04.035Z,9.60
2019-02-06T13:51:33.239Z,9.70
2019-02-06T13:54:21.444Z,9.60
2019-02-06T13:57:09.772Z,9.30
2019-02-06T13:59:58.027Z,9.40
2019-02-06T14:02:46.372Z,9.50
2019-02-06T14:05:34.599Z,9.70
2019-02-06T14:08:23.084Z,9.70
2019-02-06T14:11:11.431Z,9.90
2019-02-06T14:13:59.635Z,9.60
2019-02-06T14:16:49.599Z,9.70
2019-02-06T14:19:38.069Z,9.70
2019-02-06T14:22:26.326Z,9.80
2019-02-06T14:25:20.349Z,9.60
2019-02-06T14:28:27.656Z,9.70
2019-02-06T14:31:35.035Z,9.80
2019-02-06T14:34:36.216Z,9.60
2019-02-06T14:37:17.572Z,9.40
2019-02-06T14:39:58.520Z,9.50
2019-02-06T14:42:40.105Z,9.20
2019-02-06T14:45:47.864Z,9.10
2019-02-06T14:48:55.235Z,9.00
2019-02-06T14:52:02.577Z,9.20
2019-02-06T14:55:09.864Z,9.10
2019-02-06T14:58:17.502Z,9.10
2019-02-06T15:01:25.254Z,9.10
2019-02-06T15:04:32.655Z,8.90
2019-02-06T15:07:40.081Z,8.80
2019-02-06T15:10:47.415Z,8.70
2019-02-06T15:13:54.736Z,8.90
2019-02-06T15:17:02.100Z,8.90
2019-02-06T15:20:09.836Z,8.80
2019-02-06T15:23:12.905Z,8.90
2019-02-06T15:26:20.387Z,9.10
2019-02-06T15:29:27.937Z,9.00
2019-02-06T15:32:35.612Z,9.00
2019-02-06T15:35:43.020Z,9.00
2019-02-06T15:38:24.357Z,9.00
2019-02-06T15:41:05.624Z,8.90
2019-02-06T15:44:13.358Z,8.90
2019-02-06T15:47:20.764Z,8.90
2019-02-06T15:50:28.056Z,8.90
2019-02-06T15:53:21.178Z,8.90
2019-02-06T15:56:28.564Z,8.90
2019-02-06T15:59:35.937Z,8.80
2019-02-06T16:02:43.349Z,8.80
2019-02-06T16:06:09.952Z,8.80
2019-02-06T16:09:17.396Z,8.60
2019-02-06T16:12:08.630Z,8.40
2019-02-06T16:15:16.190Z,8.40
2019-02-06T16:17:57.551Z,8.20
2019-02-06T16:20:38.376Z,8.10
2019-02-06T16:23:19.440Z,7.90
2019-02-06T16:26:00.111Z,7.80
2019-02-06T16:28:40.972Z,7.80
2019-02-06T16:31:21.524Z,7.60
2019-02-06T16:34:02.085Z,7.50
2019-02-06T16:36:43.065Z,7.50
2019-02-06T16:39:23.791Z,7.40
2019-02-06T16:42:05.512Z,7.30
2019-02-06T16:44:45.915Z,7.20
2019-02-06T16:47:27.130Z,7.20
2019-02-06T16:50:09.025Z,7.10
2019-02-06T16:52:50.044Z,7.10
2019-02-06T16:55:30.647Z,7.10
2019-02-06T16:58:11.100Z,7.00
2019-02-06T17:00:52.029Z,6.90
2019-02-06T17:03:33.115Z,6.90
2019-02-06T17:06:14.299Z,6.80
2019-02-06T17:08:55.041Z,6.60
2019-02-06T17:14:35.903Z,6.50
2019-02-06T17:17:17.271Z,6.30
2019-02-06T17:19:57.925Z,6.30
2019-02-06T17:22:39.099Z,6.20
2019-02-06T17:25:19.736Z,6.10
2019-02-06T17:28:00.260Z,6.00
2019-02-06T17:30:40.955Z,5.90
2019-02-06T17:33:22.535Z,6.00
2019-02-06T17:36:03.358Z,5.90
2019-02-06T17:38:44.767Z,5.90
2019-02-06T17:41:52.235Z,5.80
2019-02-06T17:44:59.908Z,5.70
2019-02-06T17:48:07.785Z,5.70
2019-02-06T17:51:15.207Z,5.60
2019-02-06T17:54:22.659Z,5.50
2019-02-06T17:57:11.740Z,5.40
2019-02-06T18:00:00.648Z,5.30
2019-02-06T18:02:30.411Z,5.30
2019-02-06T18:04:59.910Z,5.30
2019-02-06T18:07:48.197Z,5.10
2019-02-06T18:10:18.200Z,5.00
2019-02-06T18:13:00.052Z,4.90
2019-02-06T18:15:41.163Z,4.90
2019-02-06T18:18:22.234Z,4.90
2019-02-06T18:21:03.089Z,4.80
2019-02-06T18:23:44.207Z,4.70
2019-02-06T18:26:24.704Z,4.70
2019-02-06T18:29:05.943Z,4.70
2019-02-06T18:31:46.698Z,4.50
2019-02-06T18:34:16.453Z,4.40
2019-02-06T18:36:46.164Z,4.40
2019-02-06T18:39:36.091Z,4.30
2019-02-06T18:46:01.469Z,4.30
2019-02-06T18:48:51.941Z,4.30
2019-02-06T18:51:21.393Z,4.30
2019-02-06T18:54:13.978Z,4.30
2019-02-06T18:56:45.680Z,4.00
2019-02-06T18:59:34.395Z,3.90
2019-02-06T19:02:23.251Z,4.00
2019-02-06T19:05:12.305Z,4.00
2019-02-06T19:08:00.897Z,4.10
2019-02-06T19:10:49.621Z,4.20
2019-02-06T19:13:30.564Z,4.10
2019-02-06T19:18:57.739Z,4.00
2019-02-06T19:21:39.168Z,3.90
2019-02-06T19:24:19.731Z,4.00
2019-02-06T19:27:00.900Z,4.00
2019-02-06T19:29:42.455Z,4.10
2019-02-06T19:32:23.619Z,4.10
2019-02-06T19:35:04.715Z,4.10
2019-02-06T19:37:48.388Z,4.00
2019-02-06T19:40:29.073Z,3.90
2019-02-06T19:43:10.599Z,3.90
2019-02-06T19:45:52.039Z,3.80
2019-02-06T19:48:22.463Z,3.70
2019-02-06T19:51:12.215Z,3.80
2019-02-06T19:54:00.609Z,3.70
2019-02-06T19:56:49.192Z,3.80
2019-02-06T19:59:37.660Z,3.70
2019-02-06T20:02:26.381Z,3.70
2019-02-06T20:05:02.595Z,3.70
2019-02-06T20:10:46.574Z,3.70
2019-02-06T20:13:34.863Z,3.70
2019-02-06T20:16:23.543Z,3.70
2019-02-06T20:19:12.671Z,3.70
2019-02-06T20:22:03.088Z,3.80
2019-02-06T20:24:51.447Z,3.80
2019-02-06T20:27:39.884Z,3.80
2019-02-06T20:30:28.964Z,3.70
2019-02-06T20:33:17.255Z,3.80
2019-02-06T20:36:05.713Z,3.80
2019-02-06T20:38:53.928Z,3.70
2019-02-06T20:41:43.912Z,3.60
2019-02-06T20:44:24.797Z,3.50
2019-02-06T20:47:06.585Z,3.40
2019-02-06T20:49:48.463Z,3.40
2019-02-06T20:52:30.336Z,3.40
2019-02-06T20:55:11.734Z,3.40
2019-02-06T20:57:52.956Z,3.40
2019-02-06T21:00:34.351Z,3.40
2019-02-06T21:06:18.721Z,3.30
2019-02-06T21:09:30.623Z,3.20
2019-02-06T21:12:12.052Z,3.10
2019-02-06T21:14:53.563Z,3.00
2019-02-06T21:17:34.399Z,2.90
2019-02-06T21:20:15.949Z,3.00
2019-02-06T21:22:57.263Z,3.00
2019-02-06T21:25:38.230Z,3.10
2019-02-06T21:28:19.657Z,3.00
2019-02-06T21:31:01.032Z,3.10
2019-02-06T21:33:42.818Z,3.10
2019-02-06T21:36:24.479Z,3.10
2019-02-06T21:38:54.348Z,3.00
2019-02-06T21:41:44.308Z,3.10
2019-02-06T21:44:14.059Z,3.10
2019-02-06T21:47:02.817Z,3.00
2019-02-06T21:49:32.555Z,2.90
2019-02-06T21:52:20.873Z,2.90
2019-02-06T21:55:09.834Z,2.80
2019-02-06T21:57:58.139Z,2.70
2019-02-06T22:00:46.764Z,2.80
2019-02-06T22:03:35.272Z,2.90
2019-02-06T22:06:23.559Z,2.80
2019-02-06T22:09:12.105Z,2.80
2019-02-06T22:12:00.560Z,2.80
2019-02-06T22:14:42.093Z,2.70
2019-02-06T22:17:22.730Z,2.70
2019-02-06T22:20:03.519Z,2.70
2019-02-06T22:22:44.889Z,2.70
2019-02-06T22:25:25.681Z,2.70
2019-02-06T22:28:06.715Z,2.70
2019-02-06T22:30:47.592Z,2.70
2019-02-06T22:33:28.478Z,2.70
2019-02-06T22:36:09.404Z,2.80
2019-02-06T22:38:50.279Z,2.80
2019-02-06T22:41:31.424Z,2.90
2019-02-06T22:44:13.348Z,2.90
2019-02-06T22:46:54.058Z,2.90
2019-02-06T22:49:35.484Z,2.80
2019-02-06T22:52:16.867Z,2.70
2019-02-06T22:54:58.044Z,2.70
2019-02-06T22:57:39.080Z,2.60
2019-02-06T23:00:24.184Z,2.70
2019-02-06T23:03:02.683Z,2.70
2019-02-06T23:05:43.435Z,2.80
2019-02-06T23:08:24.105Z,2.90
2019-02-06T23:11:05.058Z,2.90
2019-02-06T23:13:45.892Z,2.90
2019-02-06T23:16:26.443Z,2.80
2019-02-06T23:19:06.851Z,2.90
2019-02-06T23:21:47.792Z,2.90
2019-02-06T23:24:16.943Z,2.90
2019-02-06T23:27:05.158Z,2.90
2019-02-06T23:29:53.555Z,2.90
2019-02-06T23:32:41.823Z,2.90
2019-02-06T23:35:30.063Z,2.80
2019-02-06T23:38:18.296Z,2.70
2019-02-06T23:40:49.137Z,2.60
2019-02-06T23:43:18.315Z,2.60
2019-02-06T23:45:47.425Z,2.60
2019-02-06T23:48:35.733Z,2.60
2019-02-06T23:51:24.022Z,2.60
2019-02-06T23:54:12.319Z,2.60
2019-02-06T23:57:00.538Z,2.60
2019-02-06T23:59:48.832Z,2.60
